sensor_id;sensor_type;location;lat;lon;timestamp;pressure;altitude;pressure_sealevel;temperature;humidity
61018;BME280;48171;51.550;5.434;2023-02-01T00:01:07;102074.97;;;4.79;100.00
61018;BME280;48171;51.550;5.434;2023-02-01T00:03:32;102078.25;;;4.73;100.00
61018;BME280;48171;51.550;5.434;2023-02-01T00:05:58;102072.13;;;4.73;100.00
61018;BME280;48171;51.550;5.434;2023-02-01T00:08:24;102080.03;;;4.74;100.00
61018;BME280;48171;51.550;5.434;2023-02-01T00:11:00;102080.09;;;4.76;99.99
61018;BME280;48171;51.550;5.434;2023-02-01T00:13:30;102073.84;;;4.72;99.40
61018;BME280;48171;51.550;5.434;2023-02-01T00:16:13;102071.34;;;4.75;98.53
61018;BME280;48171;51.550;5.434;2023-02-01T00:18:39;102060.03;;;4.76;98.97
61018;BME280;48171;51.550;5.434;2023-02-01T00:21:05;102044.22;;;4.73;98.35
61018;BME280;48171;51.550;5.434;2023-02-01T00:23:32;102043.44;;;4.76;97.92
61018;BME280;48171;51.550;5.434;2023-02-01T00:26:03;102053.81;;;4.73;97.04
61018;BME280;48171;51.550;5.434;2023-02-01T00:28:29;102056.34;;;4.71;97.06
61018;BME280;48171;51.550;5.434;2023-02-01T00:31:02;102039.72;;;4.69;96.54
61018;BME280;48171;51.550;5.434;2023-02-01T00:33:29;102035.34;;;4.70;95.95
61018;BME280;48171;51.550;5.434;2023-02-01T00:36:03;102035.19;;;4.65;95.64
61018;BME280;48171;51.550;5.434;2023-02-01T00:38:29;102040.28;;;4.60;94.26
61018;BME280;48171;51.550;5.434;2023-02-01T00:41:02;102030.78;;;4.64;94.99
61018;BME280;48171;51.550;5.434;2023-02-01T00:43:27;102039.47;;;4.63;94.50
61018;BME280;48171;51.550;5.434;2023-02-01T00:45:52;102035.84;;;4.59;93.67
61018;BME280;48171;51.550;5.434;2023-02-01T00:48:18;102038.41;;;4.58;93.23
61018;BME280;48171;51.550;5.434;2023-02-01T00:50:43;102039.28;;;4.58;94.14
61018;BME280;48171;51.550;5.434;2023-02-01T00:53:10;102044.66;;;4.61;93.30
61018;BME280;48171;51.550;5.434;2023-02-01T00:55:35;102041.91;;;4.58;93.90
61018;BME280;48171;51.550;5.434;2023-02-01T00:58:00;102032.94;;;4.52;93.52
61018;BME280;48171;51.550;5.434;2023-02-01T01:00:26;102047.22;;;4.60;93.63
61018;BME280;48171;51.550;5.434;2023-02-01T01:02:51;102046.47;;;4.63;93.65
61018;BME280;48171;51.550;5.434;2023-02-01T01:05:17;102042.75;;;4.57;92.68
61018;BME280;48171;51.550;5.434;2023-02-01T01:07:42;102046.25;;;4.58;92.56
61018;BME280;48171;51.550;5.434;2023-02-01T01:10:07;102059.53;;;4.63;92.88
61018;BME280;48171;51.550;5.434;2023-02-01T01:12:33;102055.06;;;4.60;93.01
61018;BME280;48171;51.550;5.434;2023-02-01T01:14:58;102056.72;;;4.58;92.95
61018;BME280;48171;51.550;5.434;2023-02-01T01:17:23;102054.84;;;4.54;93.91
61018;BME280;48171;51.550;5.434;2023-02-01T01:19:49;102056.63;;;4.55;93.55
61018;BME280;48171;51.550;5.434;2023-02-01T01:22:14;102046.03;;;4.52;93.07
61018;BME280;48171;51.550;5.434;2023-02-01T01:24:39;102032.63;;;4.43;92.99
61018;BME280;48171;51.550;5.434;2023-02-01T01:27:04;102037.06;;;4.45;93.25
61018;BME280;48171;51.550;5.434;2023-02-01T01:29:30;102037.72;;;4.39;92.79
61018;BME280;48171;51.550;5.434;2023-02-01T01:31:55;102029.78;;;4.36;93.26
61018;BME280;48171;51.550;5.434;2023-02-01T01:34:20;102036.84;;;4.39;93.66
61018;BME280;48171;51.550;5.434;2023-02-01T01:36:46;102042.88;;;4.36;93.45
61018;BME280;48171;51.550;5.434;2023-02-01T01:39:11;102047.97;;;4.33;93.34
61018;BME280;48171;51.550;5.434;2023-02-01T01:41:36;102049.78;;;4.34;93.31
61018;BME280;48171;51.550;5.434;2023-02-01T01:44:03;102045.25;;;4.30;92.77
61018;BME280;48171;51.550;5.434;2023-02-01T01:46:31;102047.81;;;4.29;93.22
61018;BME280;48171;51.550;5.434;2023-02-01T01:49:14;102042.50;;;4.27;93.56
61018;BME280;48171;51.550;5.434;2023-02-01T01:51:55;102051.88;;;4.22;93.15
61018;BME280;48171;51.550;5.434;2023-02-01T01:56:57;102054.41;;;4.19;93.44
61018;BME280;48171;51.550;5.434;2023-02-01T01:59:25;102058.69;;;4.17;93.38
61018;BME280;48171;51.550;5.434;2023-02-01T02:01:52;102069.06;;;4.15;93.25
61018;BME280;48171;51.550;5.434;2023-02-01T02:04:17;102063.78;;;4.14;93.69
61018;BME280;48171;51.550;5.434;2023-02-01T02:06:56;102059.41;;;4.13;94.51
61018;BME280;48171;51.550;5.434;2023-02-01T02:09:24;102055.06;;;4.13;94.45
61018;BME280;48171;51.550;5.434;2023-02-01T02:11:49;102047.97;;;4.11;94.59
61018;BME280;48171;51.550;5.434;2023-02-01T02:14:17;102043.56;;;4.10;95.13
61018;BME280;48171;51.550;5.434;2023-02-01T02:28:36;102017.13;;;4.25;97.19
61018;BME280;48171;51.550;5.434;2023-02-01T02:33:46;102008.44;;;4.26;97.58
61018;BME280;48171;51.550;5.434;2023-02-01T02:39:21;102007.69;;;4.28;98.10
61018;BME280;48171;51.550;5.434;2023-02-01T02:42:01;102011.13;;;4.27;98.03
61018;BME280;48171;51.550;5.434;2023-02-01T02:47:51;102010.22;;;4.27;98.13
61018;BME280;48171;51.550;5.434;2023-02-01T02:50:35;102015.53;;;4.28;98.07
61018;BME280;48171;51.550;5.434;2023-02-01T02:53:28;102001.47;;;4.26;98.12
61018;BME280;48171;51.550;5.434;2023-02-01T02:56:14;102013.78;;;4.29;98.07
61018;BME280;48171;51.550;5.434;2023-02-01T02:58:59;102018.16;;;4.28;97.67
61018;BME280;48171;51.550;5.434;2023-02-01T03:01:43;102011.94;;;4.26;97.98
61018;BME280;48171;51.550;5.434;2023-02-01T03:04:27;102005.72;;;4.23;97.90
61018;BME280;48171;51.550;5.434;2023-02-01T03:06:53;102001.97;;;4.16;97.95
61018;BME280;48171;51.550;5.434;2023-02-01T03:09:34;101986.88;;;4.09;97.85
61018;BME280;48171;51.550;5.434;2023-02-01T03:12:06;101993.06;;;4.11;98.31
61018;BME280;48171;51.550;5.434;2023-02-01T03:14:56;101989.38;;;4.06;98.48
61018;BME280;48171;51.550;5.434;2023-02-01T03:17:29;101977.97;;;4.04;98.68
61018;BME280;48171;51.550;5.434;2023-02-01T03:19:59;101987.59;;;4.05;98.86
61018;BME280;48171;51.550;5.434;2023-02-01T03:22:28;101994.66;;;4.07;98.89
61018;BME280;48171;51.550;5.434;2023-02-01T03:25:02;101991.25;;;4.10;99.07
61018;BME280;48171;51.550;5.434;2023-02-01T03:27:37;101992.28;;;4.13;98.95
61018;BME280;48171;51.550;5.434;2023-02-01T03:30:20;101989.81;;;4.18;98.97
61018;BME280;48171;51.550;5.434;2023-02-01T03:32:48;101982.75;;;4.15;99.15
61018;BME280;48171;51.550;5.434;2023-02-01T03:38:20;101992.63;;;4.23;99.04
61018;BME280;48171;51.550;5.434;2023-02-01T03:40:53;101976.81;;;4.19;99.10
61018;BME280;48171;51.550;5.434;2023-02-01T03:43:21;101970.56;;;4.16;98.96
61018;BME280;48171;51.550;5.434;2023-02-01T03:45:54;101982.84;;;4.17;99.03
61018;BME280;48171;51.550;5.434;2023-02-01T03:48:23;101967.84;;;4.13;98.90
61018;BME280;48171;51.550;5.434;2023-02-01T03:50:52;101963.63;;;4.16;99.25
61018;BME280;48171;51.550;5.434;2023-02-01T03:53:22;101968.03;;;4.17;98.88
61018;BME280;48171;51.550;5.434;2023-02-01T03:55:49;101960.00;;;4.13;99.06
61018;BME280;48171;51.550;5.434;2023-02-01T03:58:21;101975.88;;;4.17;99.02
61018;BME280;48171;51.550;5.434;2023-02-01T04:00:58;101974.09;;;4.16;99.24
61018;BME280;48171;51.550;5.434;2023-02-01T04:03:24;101967.00;;;4.14;98.92
61018;BME280;48171;51.550;5.434;2023-02-01T04:05:51;101967.91;;;4.14;99.29
61018;BME280;48171;51.550;5.434;2023-02-01T04:08:17;101960.97;;;4.15;99.09
61018;BME280;48171;51.550;5.434;2023-02-01T04:10:43;101961.75;;;4.12;99.32
61018;BME280;48171;51.550;5.434;2023-02-01T04:13:09;101969.59;;;4.12;99.49
61018;BME280;48171;51.550;5.434;2023-02-01T04:15:34;101962.47;;;4.08;99.60
61018;BME280;48171;51.550;5.434;2023-02-01T04:18:00;101965.19;;;4.11;99.89
61018;BME280;48171;51.550;5.434;2023-02-01T04:20:26;101962.56;;;4.11;99.43
61018;BME280;48171;51.550;5.434;2023-02-01T04:22:51;101973.09;;;4.13;99.88
61018;BME280;48171;51.550;5.434;2023-02-01T04:25:16;101955.44;;;4.07;99.92
61018;BME280;48171;51.550;5.434;2023-02-01T04:27:42;101969.47;;;4.09;99.67
61018;BME280;48171;51.550;5.434;2023-02-01T04:30:08;101965.91;;;4.07;99.95
61018;BME280;48171;51.550;5.434;2023-02-01T04:32:35;101981.81;;;4.13;99.75
61018;BME280;48171;51.550;5.434;2023-02-01T04:35:00;101968.50;;;4.07;100.00
61018;BME280;48171;51.550;5.434;2023-02-01T04:37:26;101979.13;;;4.12;100.00
61018;BME280;48171;51.550;5.434;2023-02-01T04:39:51;101970.34;;;4.10;100.00
61018;BME280;48171;51.550;5.434;2023-02-01T04:42:16;101953.66;;;4.06;100.00
61018;BME280;48171;51.550;5.434;2023-02-01T04:44:42;101961.50;;;4.06;100.00
61018;BME280;48171;51.550;5.434;2023-02-01T04:47:08;101975.56;;;4.10;100.00
61018;BME280;48171;51.550;5.434;2023-02-01T04:49:34;101978.09;;;4.07;100.00
61018;BME280;48171;51.550;5.434;2023-02-01T04:51:59;101985.88;;;4.05;100.00
61018;BME280;48171;51.550;5.434;2023-02-01T04:54:25;101986.75;;;4.06;100.00
61018;BME280;48171;51.550;5.434;2023-02-01T04:56:50;101989.38;;;4.06;100.00
61018;BME280;48171;51.550;5.434;2023-02-01T04:59:15;101994.50;;;4.03;100.00
61018;BME280;48171;51.550;5.434;2023-02-01T05:01:41;101984.91;;;4.03;100.00
61018;BME280;48171;51.550;5.434;2023-02-01T05:04:06;101977.00;;;4.01;100.00
61018;BME280;48171;51.550;5.434;2023-02-01T05:06:31;101994.59;;;4.06;100.00
61018;BME280;48171;51.550;5.434;2023-02-01T05:08:56;101993.06;;;4.11;100.00
61018;BME280;48171;51.550;5.434;2023-02-01T05:11:22;101999.19;;;4.11;100.00
61018;BME280;48171;51.550;5.434;2023-02-01T05:14:05;101980.72;;;4.07;100.00
61018;BME280;48171;51.550;5.434;2023-02-01T05:16:31;101985.38;;;4.15;100.00
61018;BME280;48171;51.550;5.434;2023-02-01T05:18:56;101985.53;;;4.20;100.00
61018;BME280;48171;51.550;5.434;2023-02-01T05:21:21;101976.00;;;4.20;100.00
61018;BME280;48171;51.550;5.434;2023-02-01T05:23:47;101976.09;;;4.24;100.00
61018;BME280;48171;51.550;5.434;2023-02-01T05:26:31;101978.84;;;4.27;100.00
61018;BME280;48171;51.550;5.434;2023-02-01T05:28:56;101974.56;;;4.29;100.00
61018;BME280;48171;51.550;5.434;2023-02-01T05:31:23;101972.03;;;4.32;100.00
61018;BME280;48171;51.550;5.434;2023-02-01T05:33:48;101955.38;;;4.30;100.00
61018;BME280;48171;51.550;5.434;2023-02-01T05:36:14;101968.81;;;4.39;100.00
61018;BME280;48171;51.550;5.434;2023-02-01T05:38:39;101964.47;;;4.39;100.00
61018;BME280;48171;51.550;5.434;2023-02-01T05:41:05;101956.47;;;4.35;100.00
61018;BME280;48171;51.550;5.434;2023-02-01T05:43:30;101968.69;;;4.36;100.00
61018;BME280;48171;51.550;5.434;2023-02-01T05:45:55;101968.66;;;4.34;100.00
61018;BME280;48171;51.550;5.434;2023-02-01T05:48:21;101976.44;;;4.33;100.00
61018;BME280;48171;51.550;5.434;2023-02-01T05:50:46;101980.97;;;4.37;100.00
61018;BME280;48171;51.550;5.434;2023-02-01T05:53:11;101988.03;;;4.39;100.00
61018;BME280;48171;51.550;5.434;2023-02-01T05:55:37;101996.00;;;4.43;100.00
61018;BME280;48171;51.550;5.434;2023-02-01T05:58:03;101988.19;;;4.44;100.00
61018;BME280;48171;51.550;5.434;2023-02-01T06:00:28;101999.72;;;4.49;100.00
61018;BME280;48171;51.550;5.434;2023-02-01T06:02:53;101991.00;;;4.50;100.00
61018;BME280;48171;51.550;5.434;2023-02-01T06:05:19;101985.91;;;4.53;100.00
61018;BME280;48171;51.550;5.434;2023-02-01T06:07:44;101980.63;;;4.52;100.00
61018;BME280;48171;51.550;5.434;2023-02-01T06:10:10;101987.75;;;4.56;100.00
61018;BME280;48171;51.550;5.434;2023-02-01T06:12:35;101975.31;;;4.50;100.00
61018;BME280;48171;51.550;5.434;2023-02-01T06:15:01;101984.31;;;4.57;100.00
61018;BME280;48171;51.550;5.434;2023-02-01T06:17:26;101986.94;;;4.58;100.00
61018;BME280;48171;51.550;5.434;2023-02-01T06:19:51;101988.03;;;4.64;100.00
61018;BME280;48171;51.550;5.434;2023-02-01T06:22:17;101988.06;;;4.65;100.00
61018;BME280;48171;51.550;5.434;2023-02-01T06:24:42;101980.22;;;4.65;100.00
61018;BME280;48171;51.550;5.434;2023-02-01T06:27:08;101978.44;;;4.64;100.00
61018;BME280;48171;51.550;5.434;2023-02-01T06:29:34;101984.66;;;4.68;100.00
61018;BME280;48171;51.550;5.434;2023-02-01T06:32:00;101984.00;;;4.73;100.00
61018;BME280;48171;51.550;5.434;2023-02-01T06:34:25;101990.19;;;4.75;100.00
61018;BME280;48171;51.550;5.434;2023-02-01T06:36:50;101998.09;;;4.77;100.00
61018;BME280;48171;51.550;5.434;2023-02-01T06:39:16;101992.88;;;4.77;100.00
61018;BME280;48171;51.550;5.434;2023-02-01T06:41:45;101998.19;;;4.80;100.00
61018;BME280;48171;51.550;5.434;2023-02-01T06:44:10;102000.03;;;4.82;100.00
61018;BME280;48171;51.550;5.434;2023-02-01T06:46:35;101999.06;;;4.80;100.00
61018;BME280;48171;51.550;5.434;2023-02-01T06:49:01;102002.63;;;4.82;100.00
61018;BME280;48171;51.550;5.434;2023-02-01T06:51:27;102009.72;;;4.85;99.87
61018;BME280;48171;51.550;5.434;2023-02-01T06:53:53;102010.63;;;4.86;99.79
61018;BME280;48171;51.550;5.434;2023-02-01T06:56:19;102011.50;;;4.86;99.97
61018;BME280;48171;51.550;5.434;2023-02-01T06:58:44;102001.88;;;4.85;99.72
61018;BME280;48171;51.550;5.434;2023-02-01T07:01:10;102014.97;;;4.85;99.53
61018;BME280;48171;51.550;5.434;2023-02-01T07:03:36;101986.56;;;4.72;99.42
61018;BME280;48171;51.550;5.434;2023-02-01T07:06:02;102009.53;;;4.80;99.58
61018;BME280;48171;51.550;5.434;2023-02-01T07:08:29;101987.44;;;4.72;99.23
61018;BME280;48171;51.550;5.434;2023-02-01T07:10:54;102011.22;;;4.78;99.62
61018;BME280;48171;51.550;5.434;2023-02-01T07:13:20;102003.34;;;4.77;99.28
61018;BME280;48171;51.550;5.434;2023-02-01T07:15:45;101992.88;;;4.77;99.23
61018;BME280;48171;51.550;5.434;2023-02-01T07:18:14;101989.13;;;4.70;99.46
61018;BME280;48171;51.550;5.434;2023-02-01T07:20:40;101989.09;;;4.69;99.16
61018;BME280;48171;51.550;5.434;2023-02-01T07:23:05;101999.72;;;4.73;99.16
61018;BME280;48171;51.550;5.434;2023-02-01T07:25:31;101993.53;;;4.71;99.06
61018;BME280;48171;51.550;5.434;2023-02-01T07:27:57;101997.81;;;4.69;98.99
61018;BME280;48171;51.550;5.434;2023-02-01T07:30:22;101991.66;;;4.67;98.70
61018;BME280;48171;51.550;5.434;2023-02-01T07:32:48;102010.06;;;4.70;98.79
61018;BME280;48171;51.550;5.434;2023-02-01T07:35:13;102013.63;;;4.72;99.42
61018;BME280;48171;51.550;5.434;2023-02-01T07:37:39;101997.69;;;4.66;98.97
61018;BME280;48171;51.550;5.434;2023-02-01T07:40:05;102012.75;;;4.72;98.60
61018;BME280;48171;51.550;5.434;2023-02-01T07:42:31;102013.63;;;4.72;98.57
61018;BME280;48171;51.550;5.434;2023-02-01T07:44:56;102014.47;;;4.71;98.60
61018;BME280;48171;51.550;5.434;2023-02-01T07:47:22;102019.66;;;4.70;98.71
61018;BME280;48171;51.550;5.434;2023-02-01T07:49:47;102008.28;;;4.69;98.72
61018;BME280;48171;51.550;5.434;2023-02-01T07:52:12;102010.03;;;4.69;98.53
61018;BME280;48171;51.550;5.434;2023-02-01T07:54:40;102012.00;;;4.76;98.20
61018;BME280;48171;51.550;5.434;2023-02-01T07:57:06;102008.59;;;4.78;98.15
61018;BME280;48171;51.550;5.434;2023-02-01T07:59:31;102001.47;;;4.74;98.03
61018;BME280;48171;51.550;5.434;2023-02-01T08:01:56;102016.59;;;4.81;98.30
61018;BME280;48171;51.550;5.434;2023-02-01T08:04:21;102016.47;;;4.78;98.10
61018;BME280;48171;51.550;5.434;2023-02-01T08:06:47;102026.31;;;4.86;98.33
61018;BME280;48171;51.550;5.434;2023-02-01T08:09:12;102021.91;;;4.85;98.24
61018;BME280;48171;51.550;5.434;2023-02-01T08:11:37;102029.03;;;4.89;98.01
61018;BME280;48171;51.550;5.434;2023-02-01T08:14:03;102036.22;;;4.94;97.99
61018;BME280;48171;51.550;5.434;2023-02-01T08:16:29;102042.53;;;4.99;98.61
61018;BME280;48171;51.550;5.434;2023-02-01T08:18:54;102040.94;;;5.05;98.07
61018;BME280;48171;51.550;5.434;2023-02-01T08:21:22;102041.16;;;5.11;97.60
61018;BME280;48171;51.550;5.434;2023-02-01T08:23:48;102042.16;;;5.14;97.42
61018;BME280;48171;51.550;5.434;2023-02-01T08:28:44;102038.94;;;5.21;97.38
61018;BME280;48171;51.550;5.434;2023-02-01T08:31:13;102039.81;;;5.22;97.17
61018;BME280;48171;51.550;5.434;2023-02-01T08:33:42;102046.81;;;5.23;97.11
61018;BME280;48171;51.550;5.434;2023-02-01T08:36:10;102043.38;;;5.24;96.94
61018;BME280;48171;51.550;5.434;2023-02-01T08:38:37;102030.28;;;5.24;96.70
61018;BME280;48171;51.550;5.434;2023-02-01T08:41:09;102042.75;;;5.31;96.60
61018;BME280;48171;51.550;5.434;2023-02-01T08:43:35;102032.31;;;5.33;96.87
61018;BME280;48171;51.550;5.434;2023-02-01T08:46:00;102020.94;;;5.32;96.53
61018;BME280;48171;51.550;5.434;2023-02-01T08:48:26;102018.66;;;5.43;96.46
61018;BME280;48171;51.550;5.434;2023-02-01T08:50:51;102020.25;;;5.38;96.41
61018;BME280;48171;51.550;5.434;2023-02-01T08:53:16;102023.03;;;5.43;96.33
61018;BME280;48171;51.550;5.434;2023-02-01T08:55:42;102014.41;;;5.47;96.47
61018;BME280;48171;51.550;5.434;2023-02-01T08:58:07;102024.97;;;5.48;95.86
61018;BME280;48171;51.550;5.434;2023-02-01T09:00:32;102016.25;;;5.49;95.92
61018;BME280;48171;51.550;5.434;2023-02-01T09:02:57;102015.41;;;5.50;96.27
61018;BME280;48171;51.550;5.434;2023-02-01T09:05:24;102019.97;;;5.56;96.28
61018;BME280;48171;51.550;5.434;2023-02-01T09:07:52;102009.31;;;5.51;95.54
61018;BME280;48171;51.550;5.434;2023-02-01T09:10:17;102003.19;;;5.51;95.80
61018;BME280;48171;51.550;5.434;2023-02-01T09:12:43;102013.94;;;5.58;95.34
61018;BME280;48171;51.550;5.434;2023-02-01T09:15:08;102016.44;;;5.55;95.38
61018;BME280;48171;51.550;5.434;2023-02-01T09:17:34;102007.94;;;5.63;95.70
61018;BME280;48171;51.550;5.434;2023-02-01T09:19:59;102004.59;;;5.67;95.59
61018;BME280;48171;51.550;5.434;2023-02-01T09:22:24;101999.41;;;5.68;94.72
61018;BME280;48171;51.550;5.434;2023-02-01T09:24:51;101982.63;;;5.63;95.57
61018;BME280;48171;51.550;5.434;2023-02-01T09:27:17;102005.72;;;5.75;95.35
61018;BME280;48171;51.550;5.434;2023-02-01T09:29:42;101999.78;;;5.80;95.55
61018;BME280;48171;51.550;5.434;2023-02-01T09:32:07;101994.59;;;5.82;95.36
61018;BME280;48171;51.550;5.434;2023-02-01T09:34:33;101988.63;;;5.88;95.56
61018;BME280;48171;51.550;5.434;2023-02-01T09:36:59;101982.44;;;5.86;95.38
61018;BME280;48171;51.550;5.434;2023-02-01T09:39:24;101998.28;;;5.89;95.83
61018;BME280;48171;51.550;5.434;2023-02-01T09:47:19;102002.38;;;6.08;95.35
61018;BME280;48171;51.550;5.434;2023-02-01T09:49:56;102010.47;;;6.15;94.38
61018;BME280;48171;51.550;5.434;2023-02-01T09:52:29;102007.16;;;6.21;94.85
61018;BME280;48171;51.550;5.434;2023-02-01T09:55:00;101996.72;;;6.23;93.83
61018;BME280;48171;51.550;5.434;2023-02-01T09:57:48;102001.28;;;6.30;93.55
61018;BME280;48171;51.550;5.434;2023-02-01T10:00:20;101992.66;;;6.34;94.60
61018;BME280;48171;51.550;5.434;2023-02-01T10:02:49;101991.00;;;6.37;93.43
61018;BME280;48171;51.550;5.434;2023-02-01T10:05:24;102000.69;;;6.38;92.56
61018;BME280;48171;51.550;5.434;2023-02-01T10:08:05;102015.84;;;6.50;92.86
61018;BME280;48171;51.550;5.434;2023-02-01T10:10:41;101996.59;;;6.50;91.99
61018;BME280;48171;51.550;5.434;2023-02-01T10:16:59;102014.03;;;6.78;91.89
61018;BME280;48171;51.550;5.434;2023-02-01T10:22:10;102023.91;;;6.88;90.63
61018;BME280;48171;51.550;5.434;2023-02-01T10:24:40;102028.47;;;6.94;89.15
61018;BME280;48171;51.550;5.434;2023-02-01T10:27:20;102021.56;;;6.97;89.04
61018;BME280;48171;51.550;5.434;2023-02-01T10:29:58;102021.47;;;6.94;88.43
61018;BME280;48171;51.550;5.434;2023-02-01T10:32:29;102028.56;;;6.98;87.58
61018;BME280;48171;51.550;5.434;2023-02-01T10:35:02;102030.41;;;7.01;87.28
61018;BME280;48171;51.550;5.434;2023-02-01T10:37:32;102016.25;;;6.96;87.18
61018;BME280;48171;51.550;5.434;2023-02-01T10:42:47;102021.41;;;6.91;86.29
61018;BME280;48171;51.550;5.434;2023-02-01T10:45:19;102027.47;;;6.90;86.36
61018;BME280;48171;51.550;5.434;2023-02-01T10:47:47;102019.53;;;6.87;86.29
61018;BME280;48171;51.550;5.434;2023-02-01T10:50:19;102019.75;;;6.95;85.94
61018;BME280;48171;51.550;5.434;2023-02-01T10:53:03;102028.41;;;6.92;85.35
61018;BME280;48171;51.550;5.434;2023-02-01T10:58:05;102014.50;;;6.95;84.58
61018;BME280;48171;51.550;5.434;2023-02-01T11:01:06;102006.69;;;6.98;85.31
61018;BME280;48171;51.550;5.434;2023-02-01T11:03:44;102001.38;;;6.96;84.93
61018;BME280;48171;51.550;5.434;2023-02-01T11:06:29;101994.56;;;7.05;84.55
61018;BME280;48171;51.550;5.434;2023-02-01T11:09:00;101994.56;;;7.03;85.07
61018;BME280;48171;51.550;5.434;2023-02-01T11:11:27;101991.06;;;7.04;84.30
61018;BME280;48171;51.550;5.434;2023-02-01T11:13:59;101990.13;;;7.02;85.51
61018;BME280;48171;51.550;5.434;2023-02-01T11:16:34;101983.03;;;6.98;84.69
61018;BME280;48171;51.550;5.434;2023-02-01T11:19:00;101971.53;;;6.94;84.50
61018;BME280;48171;51.550;5.434;2023-02-01T11:21:25;101982.06;;;6.94;85.29
61018;BME280;48171;51.550;5.434;2023-02-01T11:23:51;101962.72;;;6.91;85.65
61018;BME280;48171;51.550;5.434;2023-02-01T11:26:23;101976.00;;;6.97;85.05
61018;BME280;48171;51.550;5.434;2023-02-01T11:28:56;101970.00;;;7.01;85.67
61018;BME280;48171;51.550;5.434;2023-02-01T11:31:23;101975.25;;;7.03;84.75
61018;BME280;48171;51.550;5.434;2023-02-01T11:33:55;101965.75;;;7.08;85.02
61018;BME280;48171;51.550;5.434;2023-02-01T11:36:30;101982.31;;;7.04;84.94
61018;BME280;48171;51.550;5.434;2023-02-01T11:42:23;101969.94;;;6.99;85.22
61018;BME280;48171;51.550;5.434;2023-02-01T11:44:35;101961.19;;;7.00;85.07
61018;BME280;48171;51.550;5.434;2023-02-01T11:49:47;101958.75;;;7.08;84.99
61018;BME280;48171;51.550;5.434;2023-02-01T11:52:29;101946.50;;;7.07;84.72
61018;BME280;48171;51.550;5.434;2023-02-01T11:55:23;101952.59;;;7.06;84.49
61018;BME280;48171;51.550;5.434;2023-02-01T11:58:05;101955.97;;;7.02;84.18
61018;BME280;48171;51.550;5.434;2023-02-01T12:06:21;101957.00;;;7.07;84.98
61018;BME280;48171;51.550;5.434;2023-02-01T12:09:05;101963.19;;;7.11;84.32
61018;BME280;48171;51.550;5.434;2023-02-01T12:14:59;101925.53;;;7.10;84.64
61018;BME280;48171;51.550;5.434;2023-02-01T12:17:41;101944.94;;;7.17;85.03
61018;BME280;48171;51.550;5.434;2023-02-01T12:31:46;101946.75;;;7.18;83.88
61018;BME280;48171;51.550;5.434;2023-02-01T12:39:56;101943.25;;;7.17;83.05
61018;BME280;48171;51.550;5.434;2023-02-01T12:42:38;101940.63;;;7.19;82.91
61018;BME280;48171;51.550;5.434;2023-02-01T12:45:21;101947.66;;;7.20;83.68
61018;BME280;48171;51.550;5.434;2023-02-01T12:47:54;101943.28;;;7.20;83.79
61018;BME280;48171;51.550;5.434;2023-02-01T12:50:31;101936.22;;;7.18;83.42
61018;BME280;48171;51.550;5.434;2023-02-01T12:53:08;101929.22;;;7.18;83.55
61018;BME280;48171;51.550;5.434;2023-02-01T12:55:38;101920.56;;;7.22;82.69
61018;BME280;48171;51.550;5.434;2023-02-01T13:01:00;101931.38;;;7.35;83.02
61018;BME280;48171;51.550;5.434;2023-02-01T13:06:02;101927.94;;;7.37;82.98
61018;BME280;48171;51.550;5.434;2023-02-01T13:08:42;101928.94;;;7.43;82.50
61018;BME280;48171;51.550;5.434;2023-02-01T13:11:19;101917.56;;;7.44;82.82
61018;BME280;48171;51.550;5.434;2023-02-01T13:16:37;101929.16;;;7.52;82.80
61018;BME280;48171;51.550;5.434;2023-02-01T13:19:16;101925.75;;;7.56;82.21
61018;BME280;48171;51.550;5.434;2023-02-01T13:21:47;101922.19;;;7.54;81.76
61018;BME280;48171;51.550;5.434;2023-02-01T13:26:53;101918.81;;;7.59;81.17
61018;BME280;48171;51.550;5.434;2023-02-01T13:29:19;101915.31;;;7.60;81.03
61018;BME280;48171;51.550;5.434;2023-02-01T13:35:01;101913.03;;;7.77;81.87
61018;BME280;48171;51.550;5.434;2023-02-01T13:37:48;101921.03;;;7.80;81.40
61018;BME280;48171;51.550;5.434;2023-02-01T13:41:32;101927.13;;;7.79;81.39
61018;BME280;48171;51.550;5.434;2023-02-01T13:43:29;101919.09;;;7.72;81.38
61018;BME280;48171;51.550;5.434;2023-02-01T13:45:57;101928.69;;;7.70;81.75
61018;BME280;48171;51.550;5.434;2023-02-01T13:48:32;101940.00;;;7.67;82.02
61018;BME280;48171;51.550;5.434;2023-02-01T13:50:59;101936.53;;;7.68;81.68
61018;BME280;48171;51.550;5.434;2023-02-01T13:53:33;101939.97;;;7.64;81.27
61018;BME280;48171;51.550;5.434;2023-02-01T13:56:19;101927.69;;;7.65;81.62
61018;BME280;48171;51.550;5.434;2023-02-01T13:58:46;101930.25;;;7.61;80.92
61018;BME280;48171;51.550;5.434;2023-02-01T14:03:51;101933.81;;;7.65;81.81
61018;BME280;48171;51.550;5.434;2023-02-01T14:06:38;101942.63;;;7.67;82.17
61018;BME280;48171;51.550;5.434;2023-02-01T14:09:31;101945.25;;;7.66;82.07
61018;BME280;48171;51.550;5.434;2023-02-01T14:11:57;101916.97;;;7.55;81.66
61018;BME280;48171;51.550;5.434;2023-02-01T14:19:24;101947.88;;;7.66;82.17
61018;BME280;48171;51.550;5.434;2023-02-01T14:21:55;101935.63;;;7.66;82.43
61018;BME280;48171;51.550;5.434;2023-02-01T14:24:34;101948.72;;;7.65;82.44
61018;BME280;48171;51.550;5.434;2023-02-01T14:29:39;101944.34;;;7.64;83.00
61018;BME280;48171;51.550;5.434;2023-02-01T14:32:19;101940.84;;;7.65;83.62
61018;BME280;48171;51.550;5.434;2023-02-01T14:37:32;101938.19;;;7.65;83.44
61018;BME280;48171;51.550;5.434;2023-02-01T14:47:54;101950.25;;;7.55;83.46
61018;BME280;48171;51.550;5.434;2023-02-01T14:58:19;101958.09;;;7.52;84.07
61018;BME280;48171;51.550;5.434;2023-02-01T15:00:49;101963.28;;;7.50;83.36
61018;BME280;48171;51.550;5.434;2023-02-01T15:06:02;101953.53;;;7.45;84.61
61018;BME280;48171;51.550;5.434;2023-02-01T15:08:39;101942.22;;;7.49;84.19
61018;BME280;48171;51.550;5.434;2023-02-01T15:11:14;101952.72;;;7.49;84.64
61018;BME280;48171;51.550;5.434;2023-02-01T15:13:48;101953.63;;;7.49;84.05